createdAt,value
2023-07-23T00:01:59.335Z,8.05
2023-07-23T00:07:01.458Z,6.63
2023-07-23T00:12:04.079Z,5.38
2023-07-23T00:17:05.912Z,14.32
2023-07-23T00:22:08.003Z,11.82
2023-07-23T00:27:11.365Z,5.43
2023-07-23T00:32:13.175Z,3.70
2023-07-23T00:37:16.373Z,6.50
2023-07-23T00:42:18.426Z,6.78
2023-07-23T00:47:20.895Z,6.03
2023-07-23T00:52:23.027Z,8.63
2023-07-23T00:57:25.036Z,4.85
2023-07-23T01:02:28.225Z,4.85
2023-07-23T01:07:32.639Z,4.70
2023-07-23T01:12:35.149Z,8.52
2023-07-23T01:17:38.213Z,5.57
2023-07-23T01:22:39.996Z,5.75
2023-07-23T01:27:42.053Z,6.10
2023-07-23T01:32:46.031Z,6.18
2023-07-23T01:37:49.171Z,6.05
2023-07-23T01:42:51.506Z,7.50
2023-07-23T01:47:53.367Z,5.60
2023-07-23T01:52:58.674Z,6.18
2023-07-23T01:58:02.718Z,7.82
2023-07-23T02:03:04.677Z,6.15
2023-07-23T02:08:08.290Z,7.97
2023-07-23T02:13:10.436Z,8.68
2023-07-23T02:18:12.494Z,4.60
2023-07-23T02:23:18.877Z,7.07
2023-07-23T02:28:20.893Z,6.57
2023-07-23T02:33:22.724Z,9.38
2023-07-23T02:38:26.187Z,7.60
2023-07-23T02:43:28.069Z,4.88
2023-07-23T02:48:30.198Z,9.38
2023-07-23T02:53:31.933Z,8.57
2023-07-23T02:58:34.577Z,5.00
2023-07-23T03:03:39.899Z,5.13
2023-07-23T03:08:41.984Z,7.50
2023-07-23T03:13:44.123Z,4.70
2023-07-23T03:18:47.023Z,5.22
2023-07-23T03:23:48.910Z,5.93
2023-07-23T03:28:51.769Z,3.85
2023-07-23T03:33:53.739Z,4.50
2023-07-23T03:38:55.903Z,5.53
2023-07-23T03:43:57.638Z,4.47
2023-07-23T03:48:59.575Z,6.32
2023-07-23T03:54:01.423Z,5.38
2023-07-23T03:59:03.515Z,9.38
2023-07-23T04:04:06.336Z,4.20
2023-07-23T04:09:09.810Z,7.30
2023-07-23T04:14:11.913Z,7.47
2023-07-23T04:19:14.130Z,8.60
2023-07-23T04:24:16.196Z,8.07
2023-07-23T04:29:18.332Z,10.90
2023-07-23T04:34:20.488Z,10.45
2023-07-23T04:39:22.762Z,8.50
2023-07-23T04:44:25.153Z,11.00
2023-07-23T04:49:28.308Z,9.00
2023-07-23T04:54:30.101Z,11.40
2023-07-23T04:59:32.150Z,6.13
2023-07-23T05:04:35.423Z,12.75
2023-07-23T05:09:37.344Z,12.45
2023-07-23T05:14:39.421Z,11.88
2023-07-23T05:19:41.541Z,12.70
2023-07-23T05:24:43.809Z,10.43
2023-07-23T05:29:45.759Z,10.02
2023-07-23T05:34:47.808Z,7.45
2023-07-23T05:39:50.510Z,16.15
2023-07-23T05:44:52.391Z,5.75
2023-07-23T05:49:54.497Z,6.68
2023-07-23T05:54:56.418Z,6.28
2023-07-23T05:59:58.521Z,8.43
2023-07-23T06:05:00.505Z,9.75
2023-07-23T06:10:02.653Z,9.20
2023-07-23T06:15:05.208Z,10.40
2023-07-23T06:20:09.145Z,6.15
2023-07-23T06:25:11.917Z,8.02
2023-07-23T06:30:16.478Z,8.85
2023-07-23T06:35:20.428Z,5.90
2023-07-23T06:40:24.212Z,4.18
2023-07-23T06:45:28.636Z,5.53
2023-07-23T06:50:32.070Z,3.53
2023-07-23T06:56:05.606Z,3.17
2023-07-23T07:01:09.662Z,3.80
2023-07-23T07:06:11.518Z,3.83
2023-07-23T07:11:16.875Z,3.40
2023-07-23T07:16:22.153Z,2.90
2023-07-23T07:21:25.092Z,3.15
2023-07-23T07:26:27.179Z,3.20
2023-07-23T07:31:35.003Z,5.00
2023-07-23T07:36:37.930Z,2.50
2023-07-23T07:41:39.798Z,3.08
2023-07-23T07:46:42.297Z,5.95
2023-07-23T07:51:46.500Z,5.00
2023-07-23T07:56:54.797Z,2.28
2023-07-23T08:01:58.410Z,2.40
2023-07-23T08:07:01.029Z,3.28
2023-07-23T08:12:04.007Z,2.58
2023-07-23T08:17:06.349Z,4.78
2023-07-23T08:22:10.923Z,2.28
2023-07-23T08:27:16.961Z,2.08
2023-07-23T08:32:22.256Z,2.55
2023-07-23T08:37:24.544Z,2.15
2023-07-23T08:43:02.919Z,5.55
2023-07-23T08:48:18.718Z,2.80
2023-07-23T08:53:23.114Z,4.45
2023-07-23T08:58:25.187Z,3.35
2023-07-23T09:03:28.524Z,2.90
2023-07-23T09:08:30.394Z,3.45
2023-07-23T09:13:36.678Z,2.17
2023-07-23T09:18:43.856Z,2.00
2023-07-23T09:23:52.116Z,3.75
2023-07-23T09:28:57.136Z,1.70
2023-07-23T09:34:03.020Z,2.50
2023-07-23T09:39:08.374Z,2.03
2023-07-23T09:44:13.197Z,3.63
2023-07-23T09:49:15.564Z,3.22
2023-07-23T09:54:18.535Z,4.55
2023-07-23T09:59:22.172Z,1.33
2023-07-23T10:04:24.802Z,2.72
2023-07-23T10:09:28.225Z,5.93
2023-07-23T10:14:30.288Z,3.83
2023-07-23T10:19:32.796Z,3.85
2023-07-23T10:24:40.075Z,1.40
2023-07-23T10:29:42.760Z,6.63
2023-07-23T10:34:46.028Z,2.33
2023-07-23T10:39:50.398Z,3.05
2023-07-23T10:45:28.174Z,4.35
2023-07-23T10:50:32.029Z,2.17
2023-07-23T10:55:52.470Z,3.72
2023-07-23T11:01:01.201Z,5.77
2023-07-23T11:06:04.228Z,2.63
2023-07-23T11:11:11.328Z,2.25
2023-07-23T11:16:13.397Z,2.53
2023-07-23T11:21:17.333Z,1.88
2023-07-23T11:26:19.400Z,1.55
2023-07-23T11:31:22.814Z,3.13
2023-07-23T11:36:26.031Z,2.20
2023-07-23T11:41:48.629Z,3.30
2023-07-23T11:46:50.547Z,2.25
2023-07-23T11:51:52.451Z,1.75
2023-07-23T11:56:55.870Z,2.33
2023-07-23T12:02:01.741Z,6.10
2023-07-23T12:07:07.301Z,2.78
2023-07-23T12:12:14.196Z,3.20
2023-07-23T12:17:16.577Z,3.03
2023-07-23T12:22:19.079Z,5.97
2023-07-23T12:27:20.879Z,4.65
2023-07-23T12:32:23.359Z,2.33
2023-07-23T12:37:26.534Z,3.47
2023-07-23T12:42:29.159Z,3.80
2023-07-23T12:47:33.467Z,3.05
2023-07-23T12:52:35.205Z,2.83
2023-07-23T12:57:39.704Z,4.70
2023-07-23T13:02:41.787Z,2.28
2023-07-23T13:07:44.350Z,4.90
2023-07-23T13:12:46.424Z,2.92
2023-07-23T13:17:49.407Z,2.92
2023-07-23T13:22:51.473Z,2.85
2023-07-23T13:27:53.361Z,3.35
2023-07-23T13:32:55.883Z,2.53
2023-07-23T13:37:59.627Z,2.13
2023-07-23T13:43:01.941Z,2.25
2023-07-23T13:48:04.315Z,2.42
2023-07-23T13:53:06.530Z,12.98
2023-07-23T13:58:08.413Z,5.95
2023-07-23T14:03:10.428Z,10.35
2023-07-23T14:08:12.328Z,11.15
2023-07-23T14:13:14.528Z,6.78
2023-07-23T14:18:16.965Z,10.23
2023-07-23T14:23:18.809Z,5.72
2023-07-23T14:28:20.604Z,6.15
2023-07-23T14:33:22.458Z,6.03
2023-07-23T14:38:24.648Z,14.13
2023-07-23T14:43:28.062Z,6.68
2023-07-23T14:48:31.730Z,6.70
2023-07-23T14:53:33.878Z,8.75
2023-07-23T14:58:35.635Z,4.15
2023-07-23T15:03:37.609Z,3.75
2023-07-23T15:08:41.636Z,4.10
2023-07-23T15:13:43.749Z,3.55
2023-07-23T15:18:45.841Z,3.85
2023-07-23T15:23:48.124Z,3.42
2023-07-23T15:28:52.940Z,4.07
2023-07-23T15:33:55.268Z,7.13
2023-07-23T15:38:59.787Z,3.55
2023-07-23T15:44:01.966Z,3.83
2023-07-23T15:49:03.824Z,5.30
2023-07-23T15:54:08.493Z,3.03
2023-07-23T15:59:10.635Z,4.57
2023-07-23T16:04:12.721Z,3.75
2023-07-23T16:09:14.620Z,3.50
2023-07-23T16:14:16.769Z,4.63
2023-07-23T16:19:18.543Z,3.70
2023-07-23T16:24:20.659Z,4.75
2023-07-23T16:29:22.804Z,5.45
2023-07-23T16:34:24.873Z,7.13
2023-07-23T16:39:28.423Z,5.40
2023-07-23T16:44:30.947Z,8.75
2023-07-23T16:49:33.057Z,4.65
2023-07-23T16:54:35.336Z,5.28
2023-07-23T16:59:37.546Z,5.05
2023-07-23T17:04:41.184Z,4.53
2023-07-23T17:09:43.726Z,8.32
2023-07-23T17:14:45.748Z,8.23
2023-07-23T17:19:47.911Z,5.18
2023-07-23T17:24:51.188Z,9.10
2023-07-23T17:29:53.454Z,4.65
2023-07-23T17:34:56.945Z,5.07
2023-07-23T17:40:00.185Z,10.32
2023-07-23T17:45:03.857Z,4.43
2023-07-23T17:50:14.297Z,6.55
2023-07-23T17:55:16.351Z,6.25
2023-07-23T18:00:19.054Z,10.90
2023-07-23T18:05:24.644Z,6.47
2023-07-23T18:10:26.857Z,7.70
2023-07-23T18:15:28.745Z,6.57
2023-07-23T18:20:30.853Z,6.90
2023-07-23T18:25:32.942Z,8.05
2023-07-23T18:30:35.047Z,6.07
2023-07-23T18:35:40.427Z,5.95
2023-07-23T18:40:42.552Z,8.15
2023-07-23T18:45:44.659Z,6.75
2023-07-23T18:50:46.909Z,8.57
2023-07-23T18:55:48.818Z,7.22
2023-07-23T19:00:51.476Z,6.40
2023-07-23T19:05:53.341Z,6.30
2023-07-23T19:10:55.539Z,10.85
2023-07-23T19:15:57.487Z,6.30
2023-07-23T19:21:02.073Z,8.23
2023-07-23T19:26:03.902Z,5.85
2023-07-23T19:31:08.858Z,8.55
2023-07-23T19:36:11.771Z,7.35
2023-07-23T19:41:13.724Z,7.72
2023-07-23T19:46:17.220Z,7.75
2023-07-23T19:51:19.353Z,7.60
2023-07-23T19:56:21.366Z,8.23
2023-07-23T20:01:24.773Z,8.57
2023-07-23T20:06:26.671Z,7.72
2023-07-23T20:11:29.342Z,7.28
2023-07-23T20:16:32.249Z,8.85
2023-07-23T20:21:43.893Z,7.85
2023-07-23T20:26:47.068Z,7.13
2023-07-23T20:31:50.229Z,8.35
2023-07-23T20:36:53.822Z,6.32
2023-07-23T20:41:56.171Z,8.73
2023-07-23T20:46:58.016Z,10.10
2023-07-23T20:51:59.816Z,8.55
2023-07-23T20:57:01.700Z,11.98
2023-07-23T21:02:03.674Z,9.23
2023-07-23T21:07:05.808Z,8.57
2023-07-23T21:12:07.898Z,7.47
2023-07-23T21:17:09.983Z,10.55
2023-07-23T21:22:12.473Z,8.10
2023-07-23T21:27:14.385Z,7.47
2023-07-23T21:32:16.239Z,9.32
2023-07-23T21:37:18.259Z,10.35
2023-07-23T21:42:20.431Z,12.23
2023-07-23T21:47:26.999Z,12.85
2023-07-23T21:52:30.174Z,9.45
2023-07-23T21:57:32.190Z,10.60
2023-07-23T22:02:34.214Z,10.32
2023-07-23T22:07:37.756Z,8.38
2023-07-23T22:12:40.141Z,9.45
2023-07-23T22:17:41.910Z,10.07
2023-07-23T22:22:44.072Z,9.38
2023-07-23T22:27:47.517Z,10.45
2023-07-23T22:32:49.337Z,10.57
2023-07-23T22:37:51.461Z,8.75
2023-07-23T22:43:02.865Z,13.50
2023-07-23T22:48:06.521Z,8.40
2023-07-23T22:53:10.786Z,11.95
2023-07-23T22:58:13.172Z,7.63
2023-07-23T23:03:15.283Z,11.43
2023-07-23T23:08:17.851Z,9.88
2023-07-23T23:13:19.627Z,13.70
2023-07-23T23:18:21.941Z,12.57
2023-07-23T23:23:24.016Z,10.07
2023-07-23T23:28:25.829Z,10.10
2023-07-23T23:33:27.592Z,11.80
2023-07-23T23:38:29.484Z,10.55
2023-07-23T23:43:31.310Z,7.90
2023-07-23T23:48:33.278Z,7.55
2023-07-23T23:53:35.899Z,21.67
2023-07-23T23:58:37.972Z,13.93
